sensor_id;sensor_type;location;lat;lon;timestamp;temperature;humidity
66740;DHT22;53653;52.188;8.602;2023-04-24T00:01:31;11.91;80.09
66740;DHT22;53653;52.188;8.602;2023-04-24T00:04:00;11.95;79.05
66740;DHT22;53653;52.188;8.602;2023-04-24T00:06:26;12.01;78.40
66740;DHT22;53653;52.188;8.602;2023-04-24T00:09:01;12.00;77.95
66740;DHT22;53653;52.188;8.602;2023-04-24T00:11:27;11.94;77.38
66740;DHT22;53653;52.188;8.602;2023-04-24T00:13:53;11.86;77.36
66740;DHT22;53653;52.188;8.602;2023-04-24T00:16:19;11.76;77.11
66740;DHT22;53653;52.188;8.602;2023-04-24T00:18:45;11.80;76.43
66740;DHT22;53653;52.188;8.602;2023-04-24T00:21:16;11.77;76.07
66740;DHT22;53653;52.188;8.602;2023-04-24T00:23:43;11.77;76.01
66740;DHT22;53653;52.188;8.602;2023-04-24T00:26:09;11.70;75.55
66740;DHT22;53653;52.188;8.602;2023-04-24T00:28:35;11.70;75.22
66740;DHT22;53653;52.188;8.602;2023-04-24T00:31:02;11.73;74.94
66740;DHT22;53653;52.188;8.602;2023-04-24T00:33:28;11.79;74.06
66740;DHT22;53653;52.188;8.602;2023-04-24T00:35:54;11.72;74.06
66740;DHT22;53653;52.188;8.602;2023-04-24T00:38:20;11.70;74.85
66740;DHT22;53653;52.188;8.602;2023-04-24T00:40:47;11.70;74.50
66740;DHT22;53653;52.188;8.602;2023-04-24T00:43:13;11.66;74.49
66740;DHT22;53653;52.188;8.602;2023-04-24T00:45:39;11.66;74.46
66740;DHT22;53653;52.188;8.602;2023-04-24T00:48:06;11.66;74.92
66740;DHT22;53653;52.188;8.602;2023-04-24T00:50:32;11.63;74.97
66740;DHT22;53653;52.188;8.602;2023-04-24T00:52:58;11.67;74.27
66740;DHT22;53653;52.188;8.602;2023-04-24T00:55:24;11.67;73.96
66740;DHT22;53653;52.188;8.602;2023-04-24T00:57:50;11.66;74.33
66740;DHT22;53653;52.188;8.602;2023-04-24T01:00:16;11.65;74.76
66740;DHT22;53653;52.188;8.602;2023-04-24T01:02:44;11.59;75.09
66740;DHT22;53653;52.188;8.602;2023-04-24T01:05:14;11.53;75.18
66740;DHT22;53653;52.188;8.602;2023-04-24T01:07:45;11.38;76.06
66740;DHT22;53653;52.188;8.602;2023-04-24T01:10:13;11.24;76.71
66740;DHT22;53653;52.188;8.602;2023-04-24T01:12:39;11.25;76.72
66740;DHT22;53653;52.188;8.602;2023-04-24T01:15:05;11.12;77.08
66740;DHT22;53653;52.188;8.602;2023-04-24T01:17:32;11.26;76.13
66740;DHT22;53653;52.188;8.602;2023-04-24T01:19:59;11.32;75.75
66740;DHT22;53653;52.188;8.602;2023-04-24T01:22:25;11.28;75.90
66740;DHT22;53653;52.188;8.602;2023-04-24T01:24:51;11.29;75.73
66740;DHT22;53653;52.188;8.602;2023-04-24T01:27:17;11.34;75.69
66740;DHT22;53653;52.188;8.602;2023-04-24T01:29:44;11.32;75.17
66740;DHT22;53653;52.188;8.602;2023-04-24T01:32:10;11.35;75.22
66740;DHT22;53653;52.188;8.602;2023-04-24T01:34:37;11.26;75.85
66740;DHT22;53653;52.188;8.602;2023-04-24T01:37:02;11.21;76.05
66740;DHT22;53653;52.188;8.602;2023-04-24T01:39:28;11.21;75.48
66740;DHT22;53653;52.188;8.602;2023-04-24T01:41:55;11.28;75.30
66740;DHT22;53653;52.188;8.602;2023-04-24T01:44:21;11.22;75.21
66740;DHT22;53653;52.188;8.602;2023-04-24T01:46:47;11.18;75.74
66740;DHT22;53653;52.188;8.602;2023-04-24T01:49:12;11.12;76.21
66740;DHT22;53653;52.188;8.602;2023-04-24T01:51:38;11.05;76.29
66740;DHT22;53653;52.188;8.602;2023-04-24T01:54:04;11.05;76.24
66740;DHT22;53653;52.188;8.602;2023-04-24T01:56:33;10.98;76.44
66740;DHT22;53653;52.188;8.602;2023-04-24T01:58:59;10.98;76.65
66740;DHT22;53653;52.188;8.602;2023-04-24T02:01:26;11.00;76.81
66740;DHT22;53653;52.188;8.602;2023-04-24T02:03:51;11.03;76.66
66740;DHT22;53653;52.188;8.602;2023-04-24T02:06:17;11.03;76.75
66740;DHT22;53653;52.188;8.602;2023-04-24T02:08:42;10.96;77.19
66740;DHT22;53653;52.188;8.602;2023-04-24T02:11:11;10.93;77.58
66740;DHT22;53653;52.188;8.602;2023-04-24T02:13:36;11.07;76.91
66740;DHT22;53653;52.188;8.602;2023-04-24T02:16:02;11.03;77.09
66740;DHT22;53653;52.188;8.602;2023-04-24T02:18:29;10.97;76.82
66740;DHT22;53653;52.188;8.602;2023-04-24T02:20:56;10.97;77.14
66740;DHT22;53653;52.188;8.602;2023-04-24T02:23:21;10.96;77.43
66740;DHT22;53653;52.188;8.602;2023-04-24T02:25:47;10.90;77.79
66740;DHT22;53653;52.188;8.602;2023-04-24T02:28:12;10.91;77.86
66740;DHT22;53653;52.188;8.602;2023-04-24T02:30:38;10.88;78.03
66740;DHT22;53653;52.188;8.602;2023-04-24T02:33:03;10.80;78.19
66740;DHT22;53653;52.188;8.602;2023-04-24T02:35:29;10.71;78.03
66740;DHT22;53653;52.188;8.602;2023-04-24T02:37:55;10.63;78.50
66740;DHT22;53653;52.188;8.602;2023-04-24T02:40:20;10.63;78.52
66740;DHT22;53653;52.188;8.602;2023-04-24T02:42:46;10.64;77.81
66740;DHT22;53653;52.188;8.602;2023-04-24T02:45:11;10.63;77.79
66740;DHT22;53653;52.188;8.602;2023-04-24T02:47:38;10.63;77.31
66740;DHT22;53653;52.188;8.602;2023-04-24T02:50:03;10.59;77.54
66740;DHT22;53653;52.188;8.602;2023-04-24T02:52:29;10.52;77.68
66740;DHT22;53653;52.188;8.602;2023-04-24T02:54:55;10.52;77.61
66740;DHT22;53653;52.188;8.602;2023-04-24T02:57:20;10.50;77.64
66740;DHT22;53653;52.188;8.602;2023-04-24T02:59:46;10.43;77.88
66740;DHT22;53653;52.188;8.602;2023-04-24T03:02:11;10.35;78.25
66740;DHT22;53653;52.188;8.602;2023-04-24T03:04:36;10.35;78.07
66740;DHT22;53653;52.188;8.602;2023-04-24T03:07:02;10.38;77.96
66740;DHT22;53653;52.188;8.602;2023-04-24T03:09:27;10.30;78.07
66740;DHT22;53653;52.188;8.602;2023-04-24T03:11:53;10.36;77.83
66740;DHT22;53653;52.188;8.602;2023-04-24T03:14:18;10.20;77.97
66740;DHT22;53653;52.188;8.602;2023-04-24T03:16:44;10.18;77.90
66740;DHT22;53653;52.188;8.602;2023-04-24T03:19:10;10.18;77.99
66740;DHT22;53653;52.188;8.602;2023-04-24T03:21:43;10.26;77.05
66740;DHT22;53653;52.188;8.602;2023-04-24T03:24:09;10.30;76.82
66740;DHT22;53653;52.188;8.602;2023-04-24T03:26:35;10.32;76.64
66740;DHT22;53653;52.188;8.602;2023-04-24T03:29:14;10.39;75.95
66740;DHT22;53653;52.188;8.602;2023-04-24T03:31:40;10.52;75.80
66740;DHT22;53653;52.188;8.602;2023-04-24T03:34:06;10.49;75.43
66740;DHT22;53653;52.188;8.602;2023-04-24T03:36:33;10.53;75.69
66740;DHT22;53653;52.188;8.602;2023-04-24T03:38:59;10.48;75.57
66740;DHT22;53653;52.188;8.602;2023-04-24T03:41:31;10.52;74.98
66740;DHT22;53653;52.188;8.602;2023-04-24T03:44:08;10.55;75.12
66740;DHT22;53653;52.188;8.602;2023-04-24T03:46:34;10.56;75.16
66740;DHT22;53653;52.188;8.602;2023-04-24T03:49:01;10.56;74.85
66740;DHT22;53653;52.188;8.602;2023-04-24T03:51:31;10.59;75.01
66740;DHT22;53653;52.188;8.602;2023-04-24T03:54:04;10.60;74.96
66740;DHT22;53653;52.188;8.602;2023-04-24T03:56:33;10.56;75.14
66740;DHT22;53653;52.188;8.602;2023-04-24T03:58:58;10.64;74.80
66740;DHT22;53653;52.188;8.602;2023-04-24T04:01:24;10.64;74.89
66740;DHT22;53653;52.188;8.602;2023-04-24T04:03:59;10.66;75.03
66740;DHT22;53653;52.188;8.602;2023-04-24T04:06:26;10.66;74.53
66740;DHT22;53653;52.188;8.602;2023-04-24T04:08:53;10.56;75.08
66740;DHT22;53653;52.188;8.602;2023-04-24T04:11:19;10.48;75.57
66740;DHT22;53653;52.188;8.602;2023-04-24T04:13:45;10.43;75.69
66740;DHT22;53653;52.188;8.602;2023-04-24T04:16:13;10.45;75.57
66740;DHT22;53653;52.188;8.602;2023-04-24T04:18:39;10.35;75.95
66740;DHT22;53653;52.188;8.602;2023-04-24T04:21:06;10.26;76.41
66740;DHT22;53653;52.188;8.602;2023-04-24T04:23:31;10.28;76.05
66740;DHT22;53653;52.188;8.602;2023-04-24T04:26:16;10.22;76.48
66740;DHT22;53653;52.188;8.602;2023-04-24T04:29:04;10.16;76.74
66740;DHT22;53653;52.188;8.602;2023-04-24T04:31:31;10.19;77.02
66740;DHT22;53653;52.188;8.602;2023-04-24T04:34:00;10.23;77.07
66740;DHT22;53653;52.188;8.602;2023-04-24T04:36:27;10.28;76.88
66740;DHT22;53653;52.188;8.602;2023-04-24T04:39:00;10.43;76.50
66740;DHT22;53653;52.188;8.602;2023-04-24T04:42:04;10.46;76.46
66740;DHT22;53653;52.188;8.602;2023-04-24T04:44:36;10.60;75.86
66740;DHT22;53653;52.188;8.602;2023-04-24T04:47:02;10.60;76.05
66740;DHT22;53653;52.188;8.602;2023-04-24T04:49:32;10.57;76.28
66740;DHT22;53653;52.188;8.602;2023-04-24T04:51:58;10.63;76.09
66740;DHT22;53653;52.188;8.602;2023-04-24T04:54:25;10.64;76.19
66740;DHT22;53653;52.188;8.602;2023-04-24T04:56:51;10.68;75.76
66740;DHT22;53653;52.188;8.602;2023-04-24T04:59:17;10.63;75.67
66740;DHT22;53653;52.188;8.602;2023-04-24T05:01:42;10.59;75.43
66740;DHT22;53653;52.188;8.602;2023-04-24T05:04:10;10.50;76.33
66740;DHT22;53653;52.188;8.602;2023-04-24T05:06:36;10.48;76.51
66740;DHT22;53653;52.188;8.602;2023-04-24T05:09:01;10.48;76.51
66740;DHT22;53653;52.188;8.602;2023-04-24T05:11:49;10.40;77.04
66740;DHT22;53653;52.188;8.602;2023-04-24T05:14:15;10.26;77.20
66740;DHT22;53653;52.188;8.602;2023-04-24T05:16:43;10.16;77.69
66740;DHT22;53653;52.188;8.602;2023-04-24T05:19:10;10.13;77.71
66740;DHT22;53653;52.188;8.602;2023-04-24T05:21:40;10.09;78.00
66740;DHT22;53653;52.188;8.602;2023-04-24T05:24:06;10.03;78.14
66740;DHT22;53653;52.188;8.602;2023-04-24T05:26:53;10.06;78.16
66740;DHT22;53653;52.188;8.602;2023-04-24T05:29:24;10.08;78.07
66740;DHT22;53653;52.188;8.602;2023-04-24T05:31:52;10.15;77.93
66740;DHT22;53653;52.188;8.602;2023-04-24T05:34:18;10.16;78.07
66740;DHT22;53653;52.188;8.602;2023-04-24T05:36:46;10.25;77.62
66740;DHT22;53653;52.188;8.602;2023-04-24T05:39:11;10.29;77.54
66740;DHT22;53653;52.188;8.602;2023-04-24T05:41:37;10.25;77.59
66740;DHT22;53653;52.188;8.602;2023-04-24T05:44:02;10.36;77.12
66740;DHT22;53653;52.188;8.602;2023-04-24T05:46:28;10.30;77.49
66740;DHT22;53653;52.188;8.602;2023-04-24T05:48:55;10.26;77.54
66740;DHT22;53653;52.188;8.602;2023-04-24T05:51:21;10.32;77.95
66740;DHT22;53653;52.188;8.602;2023-04-24T05:53:46;10.30;78.09
66740;DHT22;53653;52.188;8.602;2023-04-24T05:56:11;10.29;78.03
66740;DHT22;53653;52.188;8.602;2023-04-24T05:58:37;10.36;77.81
66740;DHT22;53653;52.188;8.602;2023-04-24T06:01:04;10.29;78.30
66740;DHT22;53653;52.188;8.602;2023-04-24T06:03:30;10.36;77.97
66740;DHT22;53653;52.188;8.602;2023-04-24T06:05:55;10.39;78.05
66740;DHT22;53653;52.188;8.602;2023-04-24T06:08:21;10.40;78.16
66740;DHT22;53653;52.188;8.602;2023-04-24T06:10:48;10.50;78.16
66740;DHT22;53653;52.188;8.602;2023-04-24T06:13:15;10.64;77.01
66740;DHT22;53653;52.188;8.602;2023-04-24T06:15:51;10.63;77.44
66740;DHT22;53653;52.188;8.602;2023-04-24T06:18:21;10.63;77.38
66740;DHT22;53653;52.188;8.602;2023-04-24T06:20:47;10.66;77.09
66740;DHT22;53653;52.188;8.602;2023-04-24T06:23:13;10.63;77.45
66740;DHT22;53653;52.188;8.602;2023-04-24T06:25:38;10.57;77.48
66740;DHT22;53653;52.188;8.602;2023-04-24T06:28:04;10.53;77.73
66740;DHT22;53653;52.188;8.602;2023-04-24T06:30:30;10.50;78.06
66740;DHT22;53653;52.188;8.602;2023-04-24T06:32:55;10.50;78.05
66740;DHT22;53653;52.188;8.602;2023-04-24T06:35:21;10.49;78.23
66740;DHT22;53653;52.188;8.602;2023-04-24T06:37:46;10.53;78.32
66740;DHT22;53653;52.188;8.602;2023-04-24T06:40:12;10.64;78.11
66740;DHT22;53653;52.188;8.602;2023-04-24T06:42:38;10.64;78.06
66740;DHT22;53653;52.188;8.602;2023-04-24T06:45:07;10.63;77.82
66740;DHT22;53653;52.188;8.602;2023-04-24T06:47:33;10.56;77.33
66740;DHT22;53653;52.188;8.602;2023-04-24T06:49:58;10.56;77.29
66740;DHT22;53653;52.188;8.602;2023-04-24T06:52:24;10.52;77.84
66740;DHT22;53653;52.188;8.602;2023-04-24T06:54:49;10.60;77.79
66740;DHT22;53653;52.188;8.602;2023-04-24T06:57:15;10.59;77.01
66740;DHT22;53653;52.188;8.602;2023-04-24T06:59:43;10.53;77.20
66740;DHT22;53653;52.188;8.602;2023-04-24T07:02:09;10.42;77.45
66740;DHT22;53653;52.188;8.602;2023-04-24T07:04:34;10.48;77.31
66740;DHT22;53653;52.188;8.602;2023-04-24T07:07:00;10.50;77.00
66740;DHT22;53653;52.188;8.602;2023-04-24T07:09:26;10.53;77.32
66740;DHT22;53653;52.188;8.602;2023-04-24T07:11:52;10.57;77.28
66740;DHT22;53653;52.188;8.602;2023-04-24T07:14:19;10.50;76.97
66740;DHT22;53653;52.188;8.602;2023-04-24T07:16:46;10.46;77.11
66740;DHT22;53653;52.188;8.602;2023-04-24T07:19:12;10.50;76.97
66740;DHT22;53653;52.188;8.602;2023-04-24T07:21:38;10.49;76.54
66740;DHT22;53653;52.188;8.602;2023-04-24T07:24:04;10.42;76.91
66740;DHT22;53653;52.188;8.602;2023-04-24T07:26:30;10.42;76.87
66740;DHT22;53653;52.188;8.602;2023-04-24T07:28:56;10.53;76.75
66740;DHT22;53653;52.188;8.602;2023-04-24T07:31:21;10.50;76.92
66740;DHT22;53653;52.188;8.602;2023-04-24T07:33:47;10.52;76.38
66740;DHT22;53653;52.188;8.602;2023-04-24T07:36:13;10.56;76.35
66740;DHT22;53653;52.188;8.602;2023-04-24T07:38:45;10.46;76.21
66740;DHT22;53653;52.188;8.602;2023-04-24T07:41:14;10.52;76.38
66740;DHT22;53653;52.188;8.602;2023-04-24T07:43:40;10.52;76.26
66740;DHT22;53653;52.188;8.602;2023-04-24T07:46:07;10.64;75.79
66740;DHT22;53653;52.188;8.602;2023-04-24T07:48:33;10.68;75.61
66740;DHT22;53653;52.188;8.602;2023-04-24T07:50:59;10.66;75.51
66740;DHT22;53653;52.188;8.602;2023-04-24T07:53:25;10.74;75.73
66740;DHT22;53653;52.188;8.602;2023-04-24T07:55:51;10.76;75.72
66740;DHT22;53653;52.188;8.602;2023-04-24T07:58:16;10.76;75.13
66740;DHT22;53653;52.188;8.602;2023-04-24T08:00:42;10.76;74.81
66740;DHT22;53653;52.188;8.602;2023-04-24T08:03:07;10.88;74.69
66740;DHT22;53653;52.188;8.602;2023-04-24T08:05:33;10.84;74.92
66740;DHT22;53653;52.188;8.602;2023-04-24T08:07:58;10.66;75.52
66740;DHT22;53653;52.188;8.602;2023-04-24T08:10:24;10.74;74.75
66740;DHT22;53653;52.188;8.602;2023-04-24T08:12:51;10.73;74.63
66740;DHT22;53653;52.188;8.602;2023-04-24T08:15:17;10.77;75.16
66740;DHT22;53653;52.188;8.602;2023-04-24T08:17:43;10.77;75.33
66740;DHT22;53653;52.188;8.602;2023-04-24T08:20:10;10.71;75.53
66740;DHT22;53653;52.188;8.602;2023-04-24T08:22:39;10.76;75.72
66740;DHT22;53653;52.188;8.602;2023-04-24T08:25:05;10.80;75.68
66740;DHT22;53653;52.188;8.602;2023-04-24T08:27:31;10.84;75.16
66740;DHT22;53653;52.188;8.602;2023-04-24T08:29:57;10.67;76.02
66740;DHT22;53653;52.188;8.602;2023-04-24T08:32:24;10.66;75.91
66740;DHT22;53653;52.188;8.602;2023-04-24T08:34:49;10.71;75.08
66740;DHT22;53653;52.188;8.602;2023-04-24T08:37:18;10.76;75.45
66740;DHT22;53653;52.188;8.602;2023-04-24T08:39:43;10.78;74.91
66740;DHT22;53653;52.188;8.602;2023-04-24T08:42:09;10.81;75.03
66740;DHT22;53653;52.188;8.602;2023-04-24T08:44:36;10.84;74.96
66740;DHT22;53653;52.188;8.602;2023-04-24T08:47:02;10.78;74.70
66740;DHT22;53653;52.188;8.602;2023-04-24T08:49:28;10.78;74.73
66740;DHT22;53653;52.188;8.602;2023-04-24T08:51:55;11.01;74.68
66740;DHT22;53653;52.188;8.602;2023-04-24T08:54:20;11.39;73.12
66740;DHT22;53653;52.188;8.602;2023-04-24T08:56:47;11.91;72.08
66740;DHT22;53653;52.188;8.602;2023-04-24T08:59:17;12.20;70.80
66740;DHT22;53653;52.188;8.602;2023-04-24T09:01:45;12.13;69.75
66740;DHT22;53653;52.188;8.602;2023-04-24T09:04:12;12.11;69.98
66740;DHT22;53653;52.188;8.602;2023-04-24T09:06:39;12.08;70.41
66740;DHT22;53653;52.188;8.602;2023-04-24T09:09:05;12.08;70.67
66740;DHT22;53653;52.188;8.602;2023-04-24T09:11:31;12.08;69.79
66740;DHT22;53653;52.188;8.602;2023-04-24T09:14:00;11.86;70.64
66740;DHT22;53653;52.188;8.602;2023-04-24T09:16:26;11.55;71.07
66740;DHT22;53653;52.188;8.602;2023-04-24T09:18:52;11.42;72.29
66740;DHT22;53653;52.188;8.602;2023-04-24T09:21:21;11.34;72.43
66740;DHT22;53653;52.188;8.602;2023-04-24T09:23:57;11.17;72.33
66740;DHT22;53653;52.188;8.602;2023-04-24T09:26:24;10.81;72.75
66740;DHT22;53653;52.188;8.602;2023-04-24T09:28:49;10.94;73.28
66740;DHT22;53653;52.188;8.602;2023-04-24T09:31:18;10.87;72.81
66740;DHT22;53653;52.188;8.602;2023-04-24T09:34:01;10.88;73.04
66740;DHT22;53653;52.188;8.602;2023-04-24T09:36:36;10.93;73.27
66740;DHT22;53653;52.188;8.602;2023-04-24T09:39:13;10.80;73.71
66740;DHT22;53653;52.188;8.602;2023-04-24T09:41:48;10.84;74.34
66740;DHT22;53653;52.188;8.602;2023-04-24T09:44:19;10.70;74.25
66740;DHT22;53653;52.188;8.602;2023-04-24T09:46:50;10.74;74.12
66740;DHT22;53653;52.188;8.602;2023-04-24T09:49:22;10.68;74.11
66740;DHT22;53653;52.188;8.602;2023-04-24T09:51:48;11.00;74.03
66740;DHT22;53653;52.188;8.602;2023-04-24T09:54:18;11.22;72.76
66740;DHT22;53653;52.188;8.602;2023-04-24T09:56:47;11.25;72.55
66740;DHT22;53653;52.188;8.602;2023-04-24T09:59:14;11.28;72.51
66740;DHT22;53653;52.188;8.602;2023-04-24T10:01:40;11.12;72.83
66740;DHT22;53653;52.188;8.602;2023-04-24T10:04:20;11.15;72.96
66740;DHT22;53653;52.188;8.602;2023-04-24T10:06:48;11.17;73.17
66740;DHT22;53653;52.188;8.602;2023-04-24T10:09:19;11.01;74.00
66740;DHT22;53653;52.188;8.602;2023-04-24T10:11:49;11.11;74.00
66740;DHT22;53653;52.188;8.602;2023-04-24T10:14:17;10.80;74.22
66740;DHT22;53653;52.188;8.602;2023-04-24T10:16:44;10.85;74.62
66740;DHT22;53653;52.188;8.602;2023-04-24T10:19:13;10.90;75.05
66740;DHT22;53653;52.188;8.602;2023-04-24T10:21:40;11.11;74.24
66740;DHT22;53653;52.188;8.602;2023-04-24T10:24:14;11.26;73.85
66740;DHT22;53653;52.188;8.602;2023-04-24T10:26:41;11.43;73.15
66740;DHT22;53653;52.188;8.602;2023-04-24T10:29:07;11.42;73.71
66740;DHT22;53653;52.188;8.602;2023-04-24T10:31:38;11.40;73.77
66740;DHT22;53653;52.188;8.602;2023-04-24T10:34:05;11.36;73.65
66740;DHT22;53653;52.188;8.602;2023-04-24T10:36:32;11.31;73.80
66740;DHT22;53653;52.188;8.602;2023-04-24T10:39:00;11.35;74.06
66740;DHT22;53653;52.188;8.602;2023-04-24T10:41:26;11.19;74.02
66740;DHT22;53653;52.188;8.602;2023-04-24T10:44:08;11.03;74.54
66740;DHT22;53653;52.188;8.602;2023-04-24T10:46:35;10.80;75.02
66740;DHT22;53653;52.188;8.602;2023-04-24T10:49:05;10.64;75.91
66740;DHT22;53653;52.188;8.602;2023-04-24T10:54:28;10.66;76.78
66740;DHT22;53653;52.188;8.602;2023-04-24T10:59:48;10.67;76.95
66740;DHT22;53653;52.188;8.602;2023-04-24T11:02:17;10.76;76.40
66740;DHT22;53653;52.188;8.602;2023-04-24T11:04:44;10.78;76.35
66740;DHT22;53653;52.188;8.602;2023-04-24T11:07:10;10.93;76.75
66740;DHT22;53653;52.188;8.602;2023-04-24T11:09:36;10.91;76.15
66740;DHT22;53653;52.188;8.602;2023-04-24T11:12:09;10.84;76.48
66740;DHT22;53653;52.188;8.602;2023-04-24T11:17:32;10.67;78.10
66740;DHT22;53653;52.188;8.602;2023-04-24T11:20:06;10.67;78.41
66740;DHT22;53653;52.188;8.602;2023-04-24T11:22:33;10.57;79.18
66740;DHT22;53653;52.188;8.602;2023-04-24T11:25:00;10.55;80.26
66740;DHT22;53653;52.188;8.602;2023-04-24T11:27:32;10.46;80.25
66740;DHT22;53653;52.188;8.602;2023-04-24T11:30:01;10.23;80.25
66740;DHT22;53653;52.188;8.602;2023-04-24T11:32:50;10.06;82.14
66740;DHT22;53653;52.188;8.602;2023-04-24T11:35:20;9.97;81.90
66740;DHT22;53653;52.188;8.602;2023-04-24T11:37:50;9.98;82.07
66740;DHT22;53653;52.188;8.602;2023-04-24T11:40:19;9.97;82.32
66740;DHT22;53653;52.188;8.602;2023-04-24T11:42:50;10.03;82.84
66740;DHT22;53653;52.188;8.602;2023-04-24T11:45:17;10.12;82.99
66740;DHT22;53653;52.188;8.602;2023-04-24T11:47:43;10.09;82.76
66740;DHT22;53653;52.188;8.602;2023-04-24T11:50:12;10.08;83.21
66740;DHT22;53653;52.188;8.602;2023-04-24T11:52:42;9.92;82.02
66740;DHT22;53653;52.188;8.602;2023-04-24T11:55:23;9.91;82.87
66740;DHT22;53653;52.188;8.602;2023-04-24T11:57:54;9.94;83.37
66740;DHT22;53653;52.188;8.602;2023-04-24T12:00:32;9.98;83.52
66740;DHT22;53653;52.188;8.602;2023-04-24T12:03:04;9.95;82.92
66740;DHT22;53653;52.188;8.602;2023-04-24T12:05:30;9.95;84.48
66740;DHT22;53653;52.188;8.602;2023-04-24T12:07:56;9.74;83.57
66740;DHT22;53653;52.188;8.602;2023-04-24T12:10:23;9.60;83.80
66740;DHT22;53653;52.188;8.602;2023-04-24T12:12:49;9.55;85.15
66740;DHT22;53653;52.188;8.602;2023-04-24T12:15:17;9.40;84.93
66740;DHT22;53653;52.188;8.602;2023-04-24T12:17:43;9.26;85.75
66740;DHT22;53653;52.188;8.602;2023-04-24T12:20:09;9.20;86.47
66740;DHT22;53653;52.188;8.602;2023-04-24T12:22:55;9.13;86.92
66740;DHT22;53653;52.188;8.602;2023-04-24T12:25:24;9.06;87.41
66740;DHT22;53653;52.188;8.602;2023-04-24T12:27:54;8.98;87.13
66740;DHT22;53653;52.188;8.602;2023-04-24T12:30:21;9.01;87.71
66740;DHT22;53653;52.188;8.602;2023-04-24T12:32:48;9.02;87.62
66740;DHT22;53653;52.188;8.602;2023-04-24T12:35:19;9.01;87.93
66740;DHT22;53653;52.188;8.602;2023-04-24T12:37:45;8.99;87.68
66740;DHT22;53653;52.188;8.602;2023-04-24T12:40:12;9.02;88.11
66740;DHT22;53653;52.188;8.602;2023-04-24T12:42:46;9.02;87.84
66740;DHT22;53653;52.188;8.602;2023-04-24T12:45:13;8.99;88.08
66740;DHT22;53653;52.188;8.602;2023-04-24T12:47:39;9.12;88.59
66740;DHT22;53653;52.188;8.602;2023-04-24T12:50:08;9.16;87.93
66740;DHT22;53653;52.188;8.602;2023-04-24T12:52:36;9.19;87.84
66740;DHT22;53653;52.188;8.602;2023-04-24T12:55:02;9.18;88.25
66740;DHT22;53653;52.188;8.602;2023-04-24T12:57:29;9.16;88.07
66740;DHT22;53653;52.188;8.602;2023-04-24T12:59:56;9.16;88.25
66740;DHT22;53653;52.188;8.602;2023-04-24T13:02:27;9.19;88.35
66740;DHT22;53653;52.188;8.602;2023-04-24T13:04:54;9.19;87.99
66740;DHT22;53653;52.188;8.602;2023-04-24T13:07:20;9.22;87.98
66740;DHT22;53653;52.188;8.602;2023-04-24T13:09:48;9.20;88.17
66740;DHT22;53653;52.188;8.602;2023-04-24T13:12:14;9.16;88.22
66740;DHT22;53653;52.188;8.602;2023-04-24T13:14:40;8.99;86.76
66740;DHT22;53653;52.188;8.602;2023-04-24T13:17:06;8.84;86.30
66740;DHT22;53653;52.188;8.602;2023-04-24T13:19:39;8.98;87.91
66740;DHT22;53653;52.188;8.602;2023-04-24T13:22:05;8.93;86.68
66740;DHT22;53653;52.188;8.602;2023-04-24T13:24:31;8.96;86.38
66740;DHT22;53653;52.188;8.602;2023-04-24T13:26:57;8.76;86.15
66740;DHT22;53653;52.188;8.602;2023-04-24T13:29:23;8.76;86.38
66740;DHT22;53653;52.188;8.602;2023-04-24T13:31:53;8.81;86.13
66740;DHT22;53653;52.188;8.602;2023-04-24T13:34:25;8.79;85.64
66740;DHT22;53653;52.188;8.602;2023-04-24T13:36:56;8.91;86.64
66740;DHT22;53653;52.188;8.602;2023-04-24T13:39:22;9.08;87.34
66740;DHT22;53653;52.188;8.602;2023-04-24T13:41:48;9.05;86.56
66740;DHT22;53653;52.188;8.602;2023-04-24T13:44:18;9.05;86.73
66740;DHT22;53653;52.188;8.602;2023-04-24T13:46:46;9.06;87.37
66740;DHT22;53653;52.188;8.602;2023-04-24T13:49:13;9.01;87.07
66740;DHT22;53653;52.188;8.602;2023-04-24T13:51:39;8.89;87.18
66740;DHT22;53653;52.188;8.602;2023-04-24T13:54:05;8.95;88.23
66740;DHT22;53653;52.188;8.602;2023-04-24T13:56:31;8.92;88.25
66740;DHT22;53653;52.188;8.602;2023-04-24T13:58:56;8.96;88.67
66740;DHT22;53653;52.188;8.602;2023-04-24T14:01:22;9.02;88.66
66740;DHT22;53653;52.188;8.602;2023-04-24T14:03:51;9.03;88.74
66740;DHT22;53653;52.188;8.602;2023-04-24T14:06:18;9.03;87.98
66740;DHT22;53653;52.188;8.602;2023-04-24T14:08:44;8.99;88.16
66740;DHT22;53653;52.188;8.602;2023-04-24T14:11:09;9.02;88.53
66740;DHT22;53653;52.188;8.602;2023-04-24T14:13:36;9.09;88.22
66740;DHT22;53653;52.188;8.602;2023-04-24T14:16:03;9.16;88.19
66740;DHT22;53653;52.188;8.602;2023-04-24T14:18:29;9.19;87.51
66740;DHT22;53653;52.188;8.602;2023-04-24T14:20:54;9.23;87.29
66740;DHT22;53653;52.188;8.602;2023-04-24T14:23:20;9.32;86.85
66740;DHT22;53653;52.188;8.602;2023-04-24T14:25:45;9.41;86.45
66740;DHT22;53653;52.188;8.602;2023-04-24T14:28:11;9.46;86.15
66740;DHT22;53653;52.188;8.602;2023-04-24T14:30:37;9.64;86.36
66740;DHT22;53653;52.188;8.602;2023-04-24T14:33:03;9.65;85.08
66740;DHT22;53653;52.188;8.602;2023-04-24T14:35:29;9.60;85.08
66740;DHT22;53653;52.188;8.602;2023-04-24T14:37:56;9.58;84.70
66740;DHT22;53653;52.188;8.602;2023-04-24T14:40:22;9.58;85.43
66740;DHT22;53653;52.188;8.602;2023-04-24T14:42:48;9.57;85.43
66740;DHT22;53653;52.188;8.602;2023-04-24T14:45:13;9.53;84.65
66740;DHT22;53653;52.188;8.602;2023-04-24T14:47:38;9.46;84.97
66740;DHT22;53653;52.188;8.602;2023-04-24T14:50:05;9.50;85.73
66740;DHT22;53653;52.188;8.602;2023-04-24T14:52:30;9.51;85.46
66740;DHT22;53653;52.188;8.602;2023-04-24T14:54:56;9.54;85.31
66740;DHT22;53653;52.188;8.602;2023-04-24T14:57:22;9.48;84.98
66740;DHT22;53653;52.188;8.602;2023-04-24T14:59:48;9.46;84.88
66740;DHT22;53653;52.188;8.602;2023-04-24T15:02:13;9.44;85.39
66740;DHT22;53653;52.188;8.602;2023-04-24T15:04:39;9.44;84.96
66740;DHT22;53653;52.188;8.602;2023-04-24T15:07:04;9.41;83.73
66740;DHT22;53653;52.188;8.602;2023-04-24T15:09:30;9.40;84.04
66740;DHT22;53653;52.188;8.602;2023-04-24T15:11:57;9.41;83.79
66740;DHT22;53653;52.188;8.602;2023-04-24T15:14:23;9.43;83.83
66740;DHT22;53653;52.188;8.602;2023-04-24T15:16:48;9.44;84.00
66740;DHT22;53653;52.188;8.602;2023-04-24T15:19:14;9.44;83.99
66740;DHT22;53653;52.188;8.602;2023-04-24T15:21:39;9.47;84.39
66740;DHT22;53653;52.188;8.602;2023-04-24T15:24:06;9.46;84.38
66740;DHT22;53653;52.188;8.602;2023-04-24T15:26:32;9.43;84.40
66740;DHT22;53653;52.188;8.602;2023-04-24T15:28:57;9.40;84.35
66740;DHT22;53653;52.188;8.602;2023-04-24T15:31:23;9.34;84.79
66740;DHT22;53653;52.188;8.602;2023-04-24T15:33:49;9.32;85.73
66740;DHT22;53653;52.188;8.602;2023-04-24T15:36:15;9.33;85.94
66740;DHT22;53653;52.188;8.602;2023-04-24T15:38:42;9.32;86.49
66740;DHT22;53653;52.188;8.602;2023-04-24T15:41:08;9.27;87.03
66740;DHT22;53653;52.188;8.602;2023-04-24T15:43:33;9.30;87.17
66740;DHT22;53653;52.188;8.602;2023-04-24T15:46:00;9.30;87.46